Flugmeteorologie

METAR


Letzte Änderung: 06 May 2021 00:50:00
702
SAHU41 HASM 060100
METAR LHSM 060045Z AUTO VRB07KT 9000 -SHRA BKN037 09/03 Q1015

TAF


Letzte Änderung: 05 May 2021 23:05:00
697
FCHU99 LHSM 052300
TAF LHSM 052300Z NIL